sensor_id;sensor_type;location;lat;lon;timestamp;pressure;altitude;pressure_sealevel;temperature;humidity
40872;BME280;26591;43.264;26.940;2023-09-07T00:00:09;99471.94;;;23.95;52.76
40872;BME280;26591;43.264;26.940;2023-09-07T00:02:36;99470.56;;;23.92;53.07
40872;BME280;26591;43.264;26.940;2023-09-07T00:05:01;99471.34;;;23.76;52.77
40872;BME280;26591;43.264;26.940;2023-09-07T00:07:27;99474.31;;;23.91;52.95
40872;BME280;26591;43.264;26.940;2023-09-07T00:09:52;99475.00;;;23.99;53.36
40872;BME280;26591;43.264;26.940;2023-09-07T00:12:18;99467.19;;;23.85;53.14
40872;BME280;26591;43.264;26.940;2023-09-07T00:14:43;99466.69;;;23.88;52.84
40872;BME280;26591;43.264;26.940;2023-09-07T00:17:10;99462.63;;;23.86;53.88
40872;BME280;26591;43.264;26.940;2023-09-07T00:19:36;99465.06;;;23.87;53.45
40872;BME280;26591;43.264;26.940;2023-09-07T00:22:03;99465.38;;;23.74;53.84
40872;BME280;26591;43.264;26.940;2023-09-07T00:24:29;99457.38;;;23.50;54.38
40872;BME280;26591;43.264;26.940;2023-09-07T00:26:54;99460.66;;;23.52;54.33
40872;BME280;26591;43.264;26.940;2023-09-07T00:29:20;99459.63;;;23.41;55.08
40872;BME280;26591;43.264;26.940;2023-09-07T00:31:45;99451.47;;;23.24;54.89
40872;BME280;26591;43.264;26.940;2023-09-07T00:34:11;99451.56;;;23.17;55.97
40872;BME280;26591;43.264;26.940;2023-09-07T00:36:36;99453.81;;;23.21;55.84
40872;BME280;26591;43.264;26.940;2023-09-07T00:39:02;99453.16;;;23.01;56.11
40872;BME280;26591;43.264;26.940;2023-09-07T00:41:28;99448.66;;;23.07;55.67
40872;BME280;26591;43.264;26.940;2023-09-07T00:43:53;99447.03;;;22.94;55.97
40872;BME280;26591;43.264;26.940;2023-09-07T00:46:19;99457.75;;;22.89;56.24
40872;BME280;26591;43.264;26.940;2023-09-07T00:48:46;99453.59;;;23.10;55.95
40872;BME280;26591;43.264;26.940;2023-09-07T00:51:11;99451.22;;;23.38;55.07
40872;BME280;26591;43.264;26.940;2023-09-07T00:53:37;99443.88;;;23.50;54.96
40872;BME280;26591;43.264;26.940;2023-09-07T00:56:03;99450.91;;;23.51;54.90
40872;BME280;26591;43.264;26.940;2023-09-07T00:58:29;99446.19;;;23.58;54.18
40872;BME280;26591;43.264;26.940;2023-09-07T01:00:55;99452.44;;;23.76;54.65
40872;BME280;26591;43.264;26.940;2023-09-07T01:03:20;99450.22;;;23.73;54.39
40872;BME280;26591;43.264;26.940;2023-09-07T01:06:01;99451.56;;;23.29;54.44
40872;BME280;26591;43.264;26.940;2023-09-07T01:08:35;99456.34;;;23.39;55.02
40872;BME280;26591;43.264;26.940;2023-09-07T01:11:18;99453.31;;;23.65;54.14
40872;BME280;26591;43.264;26.940;2023-09-07T01:13:45;99448.25;;;23.85;53.32
40872;BME280;26591;43.264;26.940;2023-09-07T01:16:12;99448.53;;;23.84;53.81
40872;BME280;26591;43.264;26.940;2023-09-07T01:18:39;99450.22;;;23.90;53.22
40872;BME280;26591;43.264;26.940;2023-09-07T01:21:08;99456.16;;;23.87;53.24
40872;BME280;26591;43.264;26.940;2023-09-07T01:23:38;99458.88;;;24.04;53.58
40872;BME280;26591;43.264;26.940;2023-09-07T01:26:07;99453.72;;;24.19;52.61
40872;BME280;26591;43.264;26.940;2023-09-07T01:28:33;99456.59;;;24.30;52.77
40872;BME280;26591;43.264;26.940;2023-09-07T01:30:59;99460.44;;;24.34;52.34
40872;BME280;26591;43.264;26.940;2023-09-07T01:33:26;99450.78;;;24.38;52.81
40872;BME280;26591;43.264;26.940;2023-09-07T01:35:52;99444.06;;;24.23;51.89
40872;BME280;26591;43.264;26.940;2023-09-07T01:38:18;99448.16;;;24.26;52.42
40872;BME280;26591;43.264;26.940;2023-09-07T01:40:43;99447.66;;;24.29;52.55
40872;BME280;26591;43.264;26.940;2023-09-07T01:43:09;99441.06;;;23.91;53.47
40872;BME280;26591;43.264;26.940;2023-09-07T01:45:34;99446.25;;;23.92;53.29
40872;BME280;26591;43.264;26.940;2023-09-07T01:48:00;99443.09;;;23.67;53.92
40872;BME280;26591;43.264;26.940;2023-09-07T01:50:26;99449.13;;;23.57;54.18
40872;BME280;26591;43.264;26.940;2023-09-07T01:52:52;99448.66;;;23.60;53.79
40872;BME280;26591;43.264;26.940;2023-09-07T01:55:17;99446.03;;;23.65;54.52
40872;BME280;26591;43.264;26.940;2023-09-07T01:57:43;99442.94;;;23.73;53.93
40872;BME280;26591;43.264;26.940;2023-09-07T02:00:10;99450.19;;;23.27;55.32
40872;BME280;26591;43.264;26.940;2023-09-07T02:02:36;99446.69;;;23.02;54.90
40872;BME280;26591;43.264;26.940;2023-09-07T02:05:01;99452.69;;;23.05;55.69
40872;BME280;26591;43.264;26.940;2023-09-07T02:07:27;99456.16;;;23.29;55.07
40872;BME280;26591;43.264;26.940;2023-09-07T02:09:53;99455.03;;;23.42;54.21
40872;BME280;26591;43.264;26.940;2023-09-07T02:12:18;99455.63;;;23.44;54.17
40872;BME280;26591;43.264;26.940;2023-09-07T02:14:44;99455.25;;;23.52;54.11
40872;BME280;26591;43.264;26.940;2023-09-07T02:17:09;99456.50;;;23.61;54.36
40872;BME280;26591;43.264;26.940;2023-09-07T02:19:35;99458.16;;;23.62;53.64
40872;BME280;26591;43.264;26.940;2023-09-07T02:22:01;99466.97;;;23.29;54.15
40872;BME280;26591;43.264;26.940;2023-09-07T02:24:26;99468.03;;;23.04;55.50
40872;BME280;26591;43.264;26.940;2023-09-07T02:26:52;99459.28;;;22.85;54.83
40872;BME280;26591;43.264;26.940;2023-09-07T02:29:17;99463.16;;;22.89;55.01
40872;BME280;26591;43.264;26.940;2023-09-07T02:31:43;99465.13;;;22.82;54.74
40872;BME280;26591;43.264;26.940;2023-09-07T02:34:08;99467.13;;;22.51;56.43
40872;BME280;26591;43.264;26.940;2023-09-07T02:36:34;99468.53;;;22.65;55.27
40872;BME280;26591;43.264;26.940;2023-09-07T02:39:03;99471.25;;;22.42;55.74
40872;BME280;26591;43.264;26.940;2023-09-07T02:41:30;99463.41;;;22.64;55.45
40872;BME280;26591;43.264;26.940;2023-09-07T02:43:56;99465.53;;;22.50;55.14
40872;BME280;26591;43.264;26.940;2023-09-07T02:46:21;99466.78;;;22.47;54.75
40872;BME280;26591;43.264;26.940;2023-09-07T02:48:46;99463.59;;;22.38;54.68
40872;BME280;26591;43.264;26.940;2023-09-07T02:51:12;99461.91;;;21.90;54.55
40872;BME280;26591;43.264;26.940;2023-09-07T02:53:39;99460.72;;;21.86;54.81
40872;BME280;26591;43.264;26.940;2023-09-07T02:56:04;99464.69;;;21.95;55.68
40872;BME280;26591;43.264;26.940;2023-09-07T02:58:30;99465.03;;;21.87;55.32
40872;BME280;26591;43.264;26.940;2023-09-07T03:00:56;99459.59;;;22.05;55.72
40872;BME280;26591;43.264;26.940;2023-09-07T03:03:21;99471.97;;;21.94;54.52
40872;BME280;26591;43.264;26.940;2023-09-07T03:05:47;99456.75;;;21.39;55.19
40872;BME280;26591;43.264;26.940;2023-09-07T03:08:12;99453.38;;;21.44;55.12
40872;BME280;26591;43.264;26.940;2023-09-07T03:10:39;99450.06;;;21.30;55.69
40872;BME280;26591;43.264;26.940;2023-09-07T03:13:08;99464.84;;;21.21;55.28
40872;BME280;26591;43.264;26.940;2023-09-07T03:15:33;99461.88;;;21.29;56.23
40872;BME280;26591;43.264;26.940;2023-09-07T03:17:59;99462.88;;;21.46;55.28
40872;BME280;26591;43.264;26.940;2023-09-07T03:20:26;99462.06;;;21.76;54.78
40872;BME280;26591;43.264;26.940;2023-09-07T03:22:52;99466.84;;;21.62;53.93
40872;BME280;26591;43.264;26.940;2023-09-07T03:25:17;99470.88;;;21.84;53.93
40872;BME280;26591;43.264;26.940;2023-09-07T03:27:43;99478.31;;;22.00;52.54
40872;BME280;26591;43.264;26.940;2023-09-07T03:30:09;99476.13;;;21.78;53.86
40872;BME280;26591;43.264;26.940;2023-09-07T03:32:35;99472.53;;;21.85;53.12
40872;BME280;26591;43.264;26.940;2023-09-07T03:35:02;99469.28;;;22.06;53.76
40872;BME280;26591;43.264;26.940;2023-09-07T03:37:28;99469.38;;;21.88;51.67
40872;BME280;26591;43.264;26.940;2023-09-07T03:39:55;99469.13;;;21.59;53.34
40872;BME280;26591;43.264;26.940;2023-09-07T03:42:22;99473.09;;;21.56;53.23
40872;BME280;26591;43.264;26.940;2023-09-07T03:44:47;99481.16;;;21.75;53.12
40872;BME280;26591;43.264;26.940;2023-09-07T03:47:14;99487.09;;;21.65;53.34
40872;BME280;26591;43.264;26.940;2023-09-07T03:49:40;99484.03;;;21.61;53.28
40872;BME280;26591;43.264;26.940;2023-09-07T03:52:06;99496.63;;;21.79;53.63
40872;BME280;26591;43.264;26.940;2023-09-07T03:54:32;99486.81;;;22.28;52.03
40872;BME280;26591;43.264;26.940;2023-09-07T03:56:57;99488.97;;;22.61;52.08
40872;BME280;26591;43.264;26.940;2023-09-07T03:59:23;99493.88;;;22.76;51.22
40872;BME280;26591;43.264;26.940;2023-09-07T04:01:49;99496.34;;;22.90;51.62
40872;BME280;26591;43.264;26.940;2023-09-07T04:04:15;99502.13;;;23.46;50.43
40872;BME280;26591;43.264;26.940;2023-09-07T04:06:41;99504.75;;;23.99;48.83
40872;BME280;26591;43.264;26.940;2023-09-07T04:09:06;99501.50;;;23.97;48.82
40872;BME280;26591;43.264;26.940;2023-09-07T04:11:32;99505.84;;;24.32;48.13
40872;BME280;26591;43.264;26.940;2023-09-07T04:13:57;99508.84;;;24.87;47.20
40872;BME280;26591;43.264;26.940;2023-09-07T04:16:23;99505.97;;;24.93;47.29
40872;BME280;26591;43.264;26.940;2023-09-07T04:18:48;99502.34;;;25.05;46.60
40872;BME280;26591;43.264;26.940;2023-09-07T04:21:14;99509.97;;;25.52;46.12
40872;BME280;26591;43.264;26.940;2023-09-07T04:23:39;99509.94;;;25.74;45.31
40872;BME280;26591;43.264;26.940;2023-09-07T04:26:10;99508.59;;;25.99;45.07
40872;BME280;26591;43.264;26.940;2023-09-07T04:28:36;99511.97;;;26.44;44.33
40872;BME280;26591;43.264;26.940;2023-09-07T04:31:03;99509.28;;;26.49;44.37
40872;BME280;26591;43.264;26.940;2023-09-07T04:33:32;99505.19;;;26.85;43.71
40872;BME280;26591;43.264;26.940;2023-09-07T04:36:14;99508.81;;;27.01;43.52
40872;BME280;26591;43.264;26.940;2023-09-07T04:38:40;99507.81;;;27.22;42.71
40872;BME280;26591;43.264;26.940;2023-09-07T04:41:15;99512.63;;;27.68;41.42
40872;BME280;26591;43.264;26.940;2023-09-07T04:43:43;99513.69;;;27.52;42.46
40872;BME280;26591;43.264;26.940;2023-09-07T04:46:09;99516.19;;;27.84;41.64
40872;BME280;26591;43.264;26.940;2023-09-07T04:48:35;99521.94;;;28.09;41.13
40872;BME280;26591;43.264;26.940;2023-09-07T04:51:02;99524.44;;;28.52;39.99
40872;BME280;26591;43.264;26.940;2023-09-07T04:53:30;99533.09;;;28.69;39.14
40872;BME280;26591;43.264;26.940;2023-09-07T04:55:56;99535.84;;;28.64;39.70
40872;BME280;26591;43.264;26.940;2023-09-07T04:58:22;99540.88;;;29.33;38.26
40872;BME280;26591;43.264;26.940;2023-09-07T05:00:48;99540.16;;;29.77;37.06
40872;BME280;26591;43.264;26.940;2023-09-07T05:03:13;99534.75;;;30.12;36.73
40872;BME280;26591;43.264;26.940;2023-09-07T05:05:40;99531.84;;;29.93;36.66
40872;BME280;26591;43.264;26.940;2023-09-07T05:08:06;99530.88;;;30.18;37.25
40872;BME280;26591;43.264;26.940;2023-09-07T05:10:35;99529.25;;;30.17;36.45
40872;BME280;26591;43.264;26.940;2023-09-07T05:13:00;99528.25;;;29.58;36.87
40872;BME280;26591;43.264;26.940;2023-09-07T05:15:26;99534.56;;;29.93;36.49
40872;BME280;26591;43.264;26.940;2023-09-07T05:17:55;99532.84;;;29.67;36.26
40872;BME280;26591;43.264;26.940;2023-09-07T05:20:21;99541.47;;;29.85;35.77
40872;BME280;26591;43.264;26.940;2023-09-07T05:22:46;99536.41;;;30.42;36.16
40872;BME280;26591;43.264;26.940;2023-09-07T05:25:12;99538.56;;;30.80;34.90
40872;BME280;26591;43.264;26.940;2023-09-07T05:27:38;99548.94;;;31.08;34.86
40872;BME280;26591;43.264;26.940;2023-09-07T05:30:05;99543.66;;;31.16;33.31
40872;BME280;26591;43.264;26.940;2023-09-07T05:32:30;99550.63;;;31.28;33.37
40872;BME280;26591;43.264;26.940;2023-09-07T05:34:56;99552.56;;;31.71;32.39
40872;BME280;26591;43.264;26.940;2023-09-07T05:37:22;99547.88;;;32.09;31.94
40872;BME280;26591;43.264;26.940;2023-09-07T05:39:47;99553.06;;;31.92;31.89
40872;BME280;26591;43.264;26.940;2023-09-07T05:42:14;99557.06;;;32.00;31.70
40872;BME280;26591;43.264;26.940;2023-09-07T05:44:40;99566.03;;;32.05;31.73
40872;BME280;26591;43.264;26.940;2023-09-07T05:47:05;99569.50;;;31.92;31.94
40872;BME280;26591;43.264;26.940;2023-09-07T05:49:31;99561.56;;;32.48;31.88
40872;BME280;26591;43.264;26.940;2023-09-07T05:51:57;99571.53;;;32.71;31.70
40872;BME280;26591;43.264;26.940;2023-09-07T05:54:23;99564.91;;;32.92;30.72
40872;BME280;26591;43.264;26.940;2023-09-07T05:56:48;99564.22;;;32.67;30.79
40872;BME280;26591;43.264;26.940;2023-09-07T05:59:14;99559.16;;;32.27;31.32
40872;BME280;26591;43.264;26.940;2023-09-07T06:01:39;99564.44;;;32.37;30.91
40872;BME280;26591;43.264;26.940;2023-09-07T06:04:06;99567.16;;;31.17;32.00
40872;BME280;26591;43.264;26.940;2023-09-07T06:06:32;99566.84;;;31.43;32.27
40872;BME280;26591;43.264;26.940;2023-09-07T06:08:57;99565.63;;;31.30;31.91
40872;BME280;26591;43.264;26.940;2023-09-07T06:11:26;99564.38;;;31.42;33.35
40872;BME280;26591;43.264;26.940;2023-09-07T06:13:51;99561.47;;;31.57;32.17
40872;BME280;26591;43.264;26.940;2023-09-07T06:16:17;99562.38;;;31.72;32.35
40872;BME280;26591;43.264;26.940;2023-09-07T06:18:43;99570.31;;;31.73;31.75
40872;BME280;26591;43.264;26.940;2023-09-07T06:21:08;99561.81;;;31.94;32.17
40872;BME280;26591;43.264;26.940;2023-09-07T06:23:34;99566.09;;;32.00;31.84
40872;BME280;26591;43.264;26.940;2023-09-07T06:26:00;99566.13;;;32.52;31.26
40872;BME280;26591;43.264;26.940;2023-09-07T06:28:26;99574.25;;;32.57;31.21
40872;BME280;26591;43.264;26.940;2023-09-07T06:30:51;99580.81;;;32.42;31.27
40872;BME280;26591;43.264;26.940;2023-09-07T06:33:18;99589.56;;;32.92;30.29
40872;BME280;26591;43.264;26.940;2023-09-07T06:35:43;99579.16;;;32.75;29.84
40872;BME280;26591;43.264;26.940;2023-09-07T06:38:09;99584.53;;;32.80;30.11
40872;BME280;26591;43.264;26.940;2023-09-07T06:40:35;99580.28;;;32.74;30.62
40872;BME280;26591;43.264;26.940;2023-09-07T06:43:00;99578.88;;;32.24;31.35
40872;BME280;26591;43.264;26.940;2023-09-07T06:45:34;99582.50;;;32.38;30.51
40872;BME280;26591;43.264;26.940;2023-09-07T06:47:59;99582.78;;;32.56;30.20
40872;BME280;26591;43.264;26.940;2023-09-07T06:50:25;99582.50;;;33.05;29.98
40872;BME280;26591;43.264;26.940;2023-09-07T06:52:50;99572.72;;;32.65;30.43
40872;BME280;26591;43.264;26.940;2023-09-07T06:55:16;99574.94;;;32.82;30.50
40872;BME280;26591;43.264;26.940;2023-09-07T06:57:42;99578.59;;;31.87;31.68
40872;BME280;26591;43.264;26.940;2023-09-07T07:00:07;99571.88;;;31.55;31.40
40872;BME280;26591;43.264;26.940;2023-09-07T07:02:33;99564.25;;;31.95;31.22
40872;BME280;26591;43.264;26.940;2023-09-07T07:05:00;99570.09;;;32.60;31.42
40872;BME280;26591;43.264;26.940;2023-09-07T07:07:25;99572.66;;;32.37;30.68
40872;BME280;26591;43.264;26.940;2023-09-07T07:09:51;99562.03;;;32.17;30.58
40872;BME280;26591;43.264;26.940;2023-09-07T07:12:17;99566.09;;;32.00;31.58
40872;BME280;26591;43.264;26.940;2023-09-07T07:14:43;99563.00;;;31.88;32.05
40872;BME280;26591;43.264;26.940;2023-09-07T07:17:09;99567.50;;;32.36;30.97
40872;BME280;26591;43.264;26.940;2023-09-07T07:19:34;99573.44;;;32.90;30.25
40872;BME280;26591;43.264;26.940;2023-09-07T07:22:00;99569.06;;;32.89;30.20
40872;BME280;26591;43.264;26.940;2023-09-07T07:24:26;99565.56;;;32.36;30.65
40872;BME280;26591;43.264;26.940;2023-09-07T07:26:51;99562.41;;;31.91;31.83
40872;BME280;26591;43.264;26.940;2023-09-07T07:29:16;99563.56;;;32.42;31.45
40872;BME280;26591;43.264;26.940;2023-09-07T07:31:42;99562.47;;;32.57;31.21
40872;BME280;26591;43.264;26.940;2023-09-07T07:34:07;99560.59;;;32.71;31.04
40872;BME280;26591;43.264;26.940;2023-09-07T07:36:33;99557.41;;;32.83;30.75
40872;BME280;26591;43.264;26.940;2023-09-07T07:38:58;99565.63;;;32.97;31.12
40872;BME280;26591;43.264;26.940;2023-09-07T07:41:24;99561.03;;;31.26;32.70
40872;BME280;26591;43.264;26.940;2023-09-07T07:43:49;99554.09;;;30.16;33.80
40872;BME280;26591;43.264;26.940;2023-09-07T07:46:15;99554.13;;;29.65;34.51
40872;BME280;26591;43.264;26.940;2023-09-07T07:48:41;99553.34;;;29.49;35.18
40872;BME280;26591;43.264;26.940;2023-09-07T07:51:07;99555.28;;;30.04;34.83
40872;BME280;26591;43.264;26.940;2023-09-07T07:53:34;99560.59;;;30.59;34.17
40872;BME280;26591;43.264;26.940;2023-09-07T07:56:00;99553.63;;;30.43;33.90
40872;BME280;26591;43.264;26.940;2023-09-07T07:58:26;99552.56;;;30.39;34.86
40872;BME280;26591;43.264;26.940;2023-09-07T08:00:51;99545.56;;;31.40;33.17
40872;BME280;26591;43.264;26.940;2023-09-07T08:03:17;99556.63;;;32.31;32.32
40872;BME280;26591;43.264;26.940;2023-09-07T08:05:42;99551.00;;;32.41;31.82
40872;BME280;26591;43.264;26.940;2023-09-07T08:08:09;99539.53;;;32.01;32.57
40872;BME280;26591;43.264;26.940;2023-09-07T08:10:36;99545.88;;;31.58;33.29
40872;BME280;26591;43.264;26.940;2023-09-07T08:13:07;99538.53;;;31.96;33.47
40872;BME280;26591;43.264;26.940;2023-09-07T08:15:33;99528.97;;;31.31;33.76
40872;BME280;26591;43.264;26.940;2023-09-07T08:17:59;99536.84;;;31.14;34.38
40872;BME280;26591;43.264;26.940;2023-09-07T08:20:26;99531.41;;;31.09;33.75
40872;BME280;26591;43.264;26.940;2023-09-07T08:22:51;99532.44;;;30.88;34.54
40872;BME280;26591;43.264;26.940;2023-09-07T08:25:18;99532.75;;;31.11;34.94
40872;BME280;26591;43.264;26.940;2023-09-07T08:27:43;99530.59;;;31.08;34.57
40872;BME280;26591;43.264;26.940;2023-09-07T08:30:12;99526.44;;;30.27;35.60
40872;BME280;26591;43.264;26.940;2023-09-07T08:32:39;99529.03;;;29.58;36.62
40872;BME280;26591;43.264;26.940;2023-09-07T08:35:05;99520.69;;;30.29;36.24
40872;BME280;26591;43.264;26.940;2023-09-07T08:37:33;99521.78;;;30.28;35.72
40872;BME280;26591;43.264;26.940;2023-09-07T08:39:59;99519.13;;;30.52;35.23
40872;BME280;26591;43.264;26.940;2023-09-07T08:42:25;99516.47;;;29.67;36.35
40872;BME280;26591;43.264;26.940;2023-09-07T08:44:51;99513.81;;;29.52;36.73
40872;BME280;26591;43.264;26.940;2023-09-07T08:47:18;99511.81;;;29.02;36.58
40872;BME280;26591;43.264;26.940;2023-09-07T08:49:46;99515.88;;;29.10;36.96
40872;BME280;26591;43.264;26.940;2023-09-07T08:52:14;99515.72;;;28.44;36.82
40872;BME280;26591;43.264;26.940;2023-09-07T08:54:42;99514.03;;;28.85;36.33
40872;BME280;26591;43.264;26.940;2023-09-07T08:57:09;99509.28;;;29.27;35.54
40872;BME280;26591;43.264;26.940;2023-09-07T08:59:36;99507.91;;;29.40;35.93
40872;BME280;26591;43.264;26.940;2023-09-07T09:02:01;99510.63;;;29.84;35.07
40872;BME280;26591;43.264;26.940;2023-09-07T09:04:29;99512.41;;;30.05;34.76
40872;BME280;26591;43.264;26.940;2023-09-07T09:06:55;99505.16;;;29.40;35.80
40872;BME280;26591;43.264;26.940;2023-09-07T09:09:22;99495.53;;;29.58;35.59
40872;BME280;26591;43.264;26.940;2023-09-07T09:11:51;99505.16;;;29.90;35.45
40872;BME280;26591;43.264;26.940;2023-09-07T09:14:18;99505.16;;;29.40;36.26
40872;BME280;26591;43.264;26.940;2023-09-07T09:16:50;99509.63;;;28.99;36.73
40872;BME280;26591;43.264;26.940;2023-09-07T09:19:16;99502.09;;;29.51;35.83
40872;BME280;26591;43.264;26.940;2023-09-07T09:21:44;99502.97;;;29.31;35.86
40872;BME280;26591;43.264;26.940;2023-09-07T09:24:10;99497.28;;;29.83;35.66
40872;BME280;26591;43.264;26.940;2023-09-07T09:26:37;99489.28;;;29.52;35.52
40872;BME280;26591;43.264;26.940;2023-09-07T09:29:03;99486.38;;;29.28;35.71
40872;BME280;26591;43.264;26.940;2023-09-07T09:31:29;99483.38;;;29.40;36.35
40872;BME280;26591;43.264;26.940;2023-09-07T09:33:56;99484.84;;;29.66;36.19
40872;BME280;26591;43.264;26.940;2023-09-07T09:36:22;99483.94;;;29.26;36.09
40872;BME280;26591;43.264;26.940;2023-09-07T09:38:50;99476.19;;;28.83;37.17
40872;BME280;26591;43.264;26.940;2023-09-07T09:41:18;99476.22;;;28.62;36.81
40872;BME280;26591;43.264;26.940;2023-09-07T09:43:45;99482.16;;;28.90;36.90
40872;BME280;26591;43.264;26.940;2023-09-07T09:46:14;99487.47;;;29.32;36.46
40872;BME280;26591;43.264;26.940;2023-09-07T09:48:41;99471.66;;;29.79;35.80
40872;BME280;26591;43.264;26.940;2023-09-07T09:51:07;99473.00;;;30.51;34.63
40872;BME280;26591;43.264;26.940;2023-09-07T09:53:33;99469.69;;;30.24;34.91
40872;BME280;26591;43.264;26.940;2023-09-07T09:56:00;99469.19;;;30.17;35.33
40872;BME280;26591;43.264;26.940;2023-09-07T09:58:25;99466.47;;;30.17;35.01
40872;BME280;26591;43.264;26.940;2023-09-07T10:00:54;99472.13;;;29.96;35.65
40872;BME280;26591;43.264;26.940;2023-09-07T10:03:26;99468.66;;;29.41;36.55
40872;BME280;26591;43.264;26.940;2023-09-07T10:05:53;99456.16;;;30.14;35.24
40872;BME280;26591;43.264;26.940;2023-09-07T10:08:20;99466.50;;;30.47;35.08
40872;BME280;26591;43.264;26.940;2023-09-07T10:10:49;99461.53;;;30.19;34.48
40872;BME280;26591;43.264;26.940;2023-09-07T10:13:15;99452.59;;;29.74;35.25
40872;BME280;26591;43.264;26.940;2023-09-07T10:15:42;99450.72;;;29.69;35.40
40872;BME280;26591;43.264;26.940;2023-09-07T10:18:11;99454.22;;;30.44;34.08
40872;BME280;26591;43.264;26.940;2023-09-07T10:20:54;99450.72;;;30.09;34.57
40872;BME280;26591;43.264;26.940;2023-09-07T10:26:15;99439.34;;;29.01;35.98
40872;BME280;26591;43.264;26.940;2023-09-07T10:28:43;99444.97;;;29.26;35.81
40872;BME280;26591;43.264;26.940;2023-09-07T10:31:18;99433.88;;;29.12;35.91
40872;BME280;26591;43.264;26.940;2023-09-07T10:33:45;99440.25;;;28.76;36.13
40872;BME280;26591;43.264;26.940;2023-09-07T10:36:24;99427.38;;;29.52;35.75
40872;BME280;26591;43.264;26.940;2023-09-07T10:38:51;99421.91;;;30.56;34.79
40872;BME280;26591;43.264;26.940;2023-09-07T10:41:19;99427.22;;;30.13;34.02
40872;BME280;26591;43.264;26.940;2023-09-07T10:43:49;99421.28;;;29.66;35.08
40872;BME280;26591;43.264;26.940;2023-09-07T10:46:18;99429.88;;;30.48;34.26
40872;BME280;26591;43.264;26.940;2023-09-07T10:48:45;99417.06;;;30.72;33.33
40872;BME280;26591;43.264;26.940;2023-09-07T10:51:10;99425.56;;;30.71;33.53
40872;BME280;26591;43.264;26.940;2023-09-07T10:53:36;99416.16;;;30.28;33.66
40872;BME280;26591;43.264;26.940;2023-09-07T10:56:05;99416.31;;;29.33;34.81
40872;BME280;26591;43.264;26.940;2023-09-07T10:58:33;99416.22;;;28.93;35.05
40872;BME280;26591;43.264;26.940;2023-09-07T11:00:59;99424.22;;;28.64;35.15
40872;BME280;26591;43.264;26.940;2023-09-07T11:03:26;99432.72;;;28.37;36.14
40872;BME280;26591;43.264;26.940;2023-09-07T11:06:04;99425.59;;;28.46;35.76
40872;BME280;26591;43.264;26.940;2023-09-07T11:08:32;99411.56;;;29.04;35.52
40872;BME280;26591;43.264;26.940;2023-09-07T11:11:02;99415.34;;;29.93;34.16
40872;BME280;26591;43.264;26.940;2023-09-07T11:13:28;99417.94;;;30.14;34.40
40872;BME280;26591;43.264;26.940;2023-09-07T11:15:55;99408.06;;;29.83;34.29
40872;BME280;26591;43.264;26.940;2023-09-07T11:18:22;99399.41;;;30.11;34.22
40872;BME280;26591;43.264;26.940;2023-09-07T11:20:48;99408.94;;;30.13;34.59
40872;BME280;26591;43.264;26.940;2023-09-07T11:23:14;99399.75;;;30.82;33.94
40872;BME280;26591;43.264;26.940;2023-09-07T11:25:40;99407.06;;;31.30;32.29
40872;BME280;26591;43.264;26.940;2023-09-07T11:28:06;99403.06;;;31.42;32.87
40872;BME280;26591;43.264;26.940;2023-09-07T11:30:33;99401.34;;;31.46;32.03
40872;BME280;26591;43.264;26.940;2023-09-07T11:33:05;99403.50;;;30.38;33.30
40872;BME280;26591;43.264;26.940;2023-09-07T11:35:32;99398.44;;;29.96;34.81
40872;BME280;26591;43.264;26.940;2023-09-07T11:38:03;99392.25;;;30.15;34.23
40872;BME280;26591;43.264;26.940;2023-09-07T11:40:30;99388.97;;;30.42;33.55
40872;BME280;26591;43.264;26.940;2023-09-07T11:42:56;99386.19;;;30.48;33.25
40872;BME280;26591;43.264;26.940;2023-09-07T11:45:21;99392.50;;;30.72;33.44
40872;BME280;26591;43.264;26.940;2023-09-07T11:47:47;99395.41;;;30.57;33.71
40872;BME280;26591;43.264;26.940;2023-09-07T11:50:12;99380.66;;;30.53;33.96
40872;BME280;26591;43.264;26.940;2023-09-07T11:52:38;99401.28;;;29.81;34.62
40872;BME280;26591;43.264;26.940;2023-09-07T11:55:04;99375.09;;;29.80;34.73
40872;BME280;26591;43.264;26.940;2023-09-07T11:57:30;99382.75;;;29.78;35.02
40872;BME280;26591;43.264;26.940;2023-09-07T11:59:56;99369.88;;;29.54;35.38
40872;BME280;26591;43.264;26.940;2023-09-07T12:02:21;99372.38;;;29.45;35.26
40872;BME280;26591;43.264;26.940;2023-09-07T12:04:47;99361.47;;;29.80;34.76
40872;BME280;26591;43.264;26.940;2023-09-07T12:07:14;99369.84;;;30.18;34.76
40872;BME280;26591;43.264;26.940;2023-09-07T12:09:40;99375.53;;;30.95;33.90
40872;BME280;26591;43.264;26.940;2023-09-07T12:12:06;99367.53;;;30.30;33.55
40872;BME280;26591;43.264;26.940;2023-09-07T12:14:31;99360.97;;;30.32;33.49
40872;BME280;26591;43.264;26.940;2023-09-07T12:16:57;99358.72;;;30.39;34.33
40872;BME280;26591;43.264;26.940;2023-09-07T12:19:23;99368.22;;;30.90;33.50
40872;BME280;26591;43.264;26.940;2023-09-07T12:21:48;99370.75;;;30.86;33.37
40872;BME280;26591;43.264;26.940;2023-09-07T12:24:13;99371.75;;;30.90;33.04
40872;BME280;26591;43.264;26.940;2023-09-07T12:26:39;99375.84;;;30.20;33.97
40872;BME280;26591;43.264;26.940;2023-09-07T12:29:04;99371.56;;;30.14;33.49
40872;BME280;26591;43.264;26.940;2023-09-07T12:31:30;99358.22;;;29.78;34.26
40872;BME280;26591;43.264;26.940;2023-09-07T12:33:57;99365.16;;;29.99;34.24
40872;BME280;26591;43.264;26.940;2023-09-07T12:36:22;99365.75;;;29.86;34.54
40872;BME280;26591;43.264;26.940;2023-09-07T12:38:48;99368.53;;;30.16;34.39
40872;BME280;26591;43.264;26.940;2023-09-07T12:41:13;99353.41;;;29.64;34.95
40872;BME280;26591;43.264;26.940;2023-09-07T12:43:40;99365.06;;;29.41;35.41
40872;BME280;26591;43.264;26.940;2023-09-07T12:46:05;99360.16;;;29.37;34.96
40872;BME280;26591;43.264;26.940;2023-09-07T12:48:31;99357.25;;;29.63;34.68